Wetterdaten: Woche 15.02.21 - 21.02.21 (KW7)
Datum Zeit Temp. A. Feuchte A. Luftdruck Regen Wind Richtung Taupunkt Windchill Windben
15.02.2021 00:00 -3,8 C 68 % 1040,2 hPa 0,0 l/m 1,3 km/h N -8,9 C -3,8 C 8,1 km/h
15.02.2021 01:00 -4,6 C 69 % 1040,1 hPa 0,0 l/m 0,1 km/h N -9,4 C -4,6 C 4,0 km/h
15.02.2021 02:00 -5,2 C 70 % 1039,8 hPa 0,0 l/m 0,1 km/h N -9,7 C -5,2 C 1,6 km/h
15.02.2021 03:00 -6,1 C 72 % 1039,2 hPa 0,0 l/m 0,0 km/h N -10,3 C -6,1 C 0,0 km/h
15.02.2021 04:00 -6,8 C 73 % 1038,6 hPa 0,0 l/m 0,0 km/h N -10,8 C -6,8 C 0,0 km/h
15.02.2021 05:00 -7,9 C 75 % 1038,5 hPa 0,0 l/m 0,0 km/h N -11,6 C -7,9 C 0,0 km/h
15.02.2021 06:00 -8,4 C 77 % 1038,3 hPa 0,0 l/m 0,0 km/h N -11,7 C -8,4 C 0,0 km/h
15.02.2021 07:00 -9,2 C 78 % 1038,4 hPa 0,0 l/m 0,0 km/h N -12,3 C -9,2 C 0,0 km/h
15.02.2021 08:00 -8,0 C 81 % 1038,6 hPa 0,0 l/m 0,0 km/h N -10,6 C -8,0 C 0,8 km/h
15.02.2021 09:00 -4,9 C 77 % 1038,3 hPa 0,0 l/m 0,4 km/h N -8,2 C -4,9 C 1,2 km/h
15.02.2021 10:00 -1,3 C 58 % 1037,9 hPa 0,0 l/m 1,2 km/h N -8,6 C -1,3 C 7,2 km/h
15.02.2021 11:00 -0,3 C 52 % 1037,5 hPa 0,0 l/m 0,7 km/h N -9,0 C -0,3 C 6,0 km/h
15.02.2021 12:00 0,8 C 49 % 1036,9 hPa 0,0 l/m 0,5 km/h N -8,8 C 0,8 C 3,6 km/h
15.02.2021 13:00 2,4 C 46 % 1036,1 hPa 0,3 l/m 0,0 km/h N -8,0 C 2,4 C 1,2 km/h
15.02.2021 14:00 3,8 C 41 % 1035,3 hPa 0,3 l/m 0,0 km/h N -8,1 C 3,8 C 1,2 km/h
15.02.2021 15:00 4,2 C 40 % 1034,7 hPa 0,3 l/m 0,0 km/h N -8,3 C 4,2 C 0,4 km/h
15.02.2021 16:00 2,4 C 41 % 1034,1 hPa 0,0 l/m 0,0 km/h N -9,5 C 2,4 C 0,0 km/h
15.02.2021 17:00 0,0 C 48 % 1033,7 hPa 0,0 l/m 0,0 km/h N -9,8 C 0,0 C 0,0 km/h
15.02.2021 18:00 -1,9 C 55 % 1033,5 hPa 0,0 l/m 0,0 km/h N -9,7 C -1,9 C 0,0 km/h
15.02.2021 19:00 -3,0 C 63 % 1033,2 hPa 0,0 l/m 0,0 km/h N -9,1 C -3,0 C 0,0 km/h
15.02.2021 20:00 -3,1 C 69 % 1032,4 hPa 0,0 l/m 0,0 km/h N -8,0 C -3,1 C 0,0 km/h
15.02.2021 21:00 -3,1 C 71 % 1031,8 hPa 0,0 l/m 0,0 km/h N -7,6 C -3,1 C 0,0 km/h
15.02.2021 22:00 -3,0 C 73 % 1031,3 hPa 0,0 l/m 0,0 km/h N -7,1 C -3,0 C 0,0 km/h
15.02.2021 23:00 -2,8 C 75 % 1030,3 hPa 0,0 l/m 0,0 km/h N -6,6 C -2,8 C 0,0 km/h
16.02.2021 00:00 -2,5 C 76 % 1029,3 hPa 0,0 l/m 0,0 km/h N -6,2 C -2,5 C 0,0 km/h
16.02.2021 01:00 -2,4 C 73 % 1028,6 hPa 0,0 l/m 0,0 km/h N -6,6 C -2,4 C 0,0 km/h
16.02.2021 02:00 -1,8 C 71 % 1028,3 hPa 0,0 l/m 0,0 km/h N -6,5 C -1,8 C 0,0 km/h
16.02.2021 03:00 -2,3 C 78 % 1027,3 hPa 0,0 l/m 0,0 km/h N -5,7 C -2,3 C 0,0 km/h
16.02.2021 04:00 -2,9 C 82 % 1026,7 hPa 0,0 l/m 0,0 km/h N -5,5 C -2,9 C 0,0 km/h
16.02.2021 05:00 -2,8 C 83 % 1026,1 hPa 0,0 l/m 0,0 km/h N -5,3 C -2,8 C 0,0 km/h
16.02.2021 06:00 -2,8 C 83 % 1025,8 hPa 0,0 l/m 0,0 km/h N -5,3 C -2,8 C 0,0 km/h
16.02.2021 07:00 -2,7 C 83 % 1025,8 hPa 0,0 l/m 0,0 km/h N -5,2 C -2,7 C 0,0 km/h
16.02.2021 08:00 -2,1 C 83 % 1025,6 hPa 0,0 l/m 0,0 km/h N -4,6 C -2,1 C 0,0 km/h
16.02.2021 09:00 -1,0 C 83 % 1025,8 hPa 0,0 l/m 0,0 km/h N -3,6 C -1,0 C 0,0 km/h
16.02.2021 10:00 0,2 C 83 % 1025,7 hPa 0,0 l/m 0,0 km/h N -2,4 C 0,2 C 0,0 km/h
16.02.2021 11:00 1,0 C 83 % 1025,3 hPa 0,8 l/m 0,0 km/h N -1,6 C 1,0 C 0,0 km/h
16.02.2021 12:00 1,8 C 82 % 1024,6 hPa 1,3 l/m 0,0 km/h N -1,0 C 1,8 C 0,0 km/h
16.02.2021 13:00 1,5 C 81 % 1024,2 hPa 0,5 l/m 0,0 km/h N -1,4 C 1,5 C 0,0 km/h
16.02.2021 14:00 1,6 C 81 % 1023,9 hPa 0,3 l/m 0,0 km/h N -1,3 C 1,6 C 0,0 km/h
16.02.2021 15:00 1,2 C 82 % 1023,7 hPa 0,5 l/m 0,0 km/h N -1,5 C 1,2 C 0,4 km/h
16.02.2021 16:00 0,8 C 82 % 1023,3 hPa 0,0 l/m 0,0 km/h N -1,9 C 0,8 C 0,4 km/h
16.02.2021 17:00 0,3 C 83 % 1022,7 hPa 0,0 l/m 0,0 km/h N -2,3 C 0,3 C 0,0 km/h
16.02.2021 18:00 0,3 C 83 % 1022,5 hPa 0,0 l/m 0,0 km/h N -2,2 C 0,3 C 0,4 km/h
16.02.2021 19:00 0,3 C 83 % 1021,9 hPa 0,0 l/m 0,0 km/h N -2,2 C 0,3 C 0,0 km/h
16.02.2021 20:00 0,4 C 83 % 1021,2 hPa 0,0 l/m 0,0 km/h N -2,1 C 0,4 C 0,8 km/h
16.02.2021 21:00 0,4 C 83 % 1020,6 hPa 0,0 l/m 0,0 km/h N -2,2 C 0,4 C 0,0 km/h
16.02.2021 22:00 0,2 C 83 % 1019,7 hPa 0,0 l/m 0,0 km/h N -2,3 C 0,2 C 0,0 km/h
16.02.2021 23:00 0,1 C 83 % 1019,2 hPa 0,0 l/m 0,0 km/h N -2,5 C 0,1 C 0,0 km/h
17.02.2021 00:00 -0,1 C 83 % 1018,8 hPa 0,0 l/m 0,0 km/h N -2,6 C -0,1 C 0,0 km/h
17.02.2021 01:00 -0,2 C 83 % 1018,1 hPa 0,0 l/m 0,0 km/h N -2,7 C -0,2 C 0,0 km/h
17.02.2021 02:00 -0,3 C 83 % 1017,6 hPa 0,0 l/m 0,0 km/h N -2,8 C -0,3 C 0,0 km/h
17.02.2021 03:00 -0,5 C 83 % 1017,3 hPa 0,0 l/m 0,0 km/h N -3,0 C -0,5 C 0,0 km/h
17.02.2021 04:00 -0,5 C 83 % 1017,6 hPa 0,0 l/m 0,0 km/h N -3,0 C -0,5 C 0,4 km/h
17.02.2021 05:00 -0,5 C 83 % 1017,2 hPa 0,0 l/m 0,0 km/h N -3,0 C -0,5 C 0,0 km/h
17.02.2021 06:00 -0,6 C 83 % 1017,1 hPa 0,0 l/m 0,0 km/h N -3,1 C -0,6 C 0,0 km/h
17.02.2021 07:00 -0,5 C 83 % 1017,4 hPa 0,0 l/m 0,0 km/h N -3,0 C -0,5 C 0,8 km/h
17.02.2021 08:00 2,4 C 83 % 1017,2 hPa 0,3 l/m 3,7 km/h N -0,3 C 1,6 C 15,7 km/h
17.02.2021 09:00 7,4 C 81 % 1016,6 hPa 3,4 l/m 13,6 km/h N 4,3 C 2,6 C 37,0 km/h
17.02.2021 10:00 8,0 C 77 % 1017,0 hPa 0,0 l/m 11,6 km/h N 4,2 C 4,5 C 35,4 km/h
17.02.2021 11:00 8,7 C 72 % 1017,5 hPa 0,0 l/m 11,5 km/h N 4,0 C 5,3 C 38,2 km/h
17.02.2021 12:00 9,4 C 69 % 1017,6 hPa 0,0 l/m 8,7 km/h N 4,1 C 7,8 C 29,0 km/h
17.02.2021 13:00 10,0 C 69 % 1017,7 hPa 0,0 l/m 6,8 km/h N 4,6 C 9,4 C 26,1 km/h
17.02.2021 14:00 10,2 C 68 % 1018,0 hPa 0,0 l/m 2,5 km/h N 4,6 C 10,2 C 14,5 km/h
17.02.2021 15:00 10,6 C 66 % 1018,1 hPa 0,0 l/m 2,6 km/h N 4,5 C 10,6 C 13,3 km/h
17.02.2021 16:00 10,1 C 65 % 1018,6 hPa 0,0 l/m 3,3 km/h N 3,8 C 10,1 C 17,7 km/h
17.02.2021 17:00 9,4 C 66 % 1019,2 hPa 0,0 l/m 2,3 km/h N 3,3 C 9,4 C 13,7 km/h
17.02.2021 18:00 8,8 C 68 % 1019,9 hPa 0,0 l/m 1,2 km/h N 3,3 C 8,8 C 8,8 km/h
17.02.2021 19:00 8,6 C 68 % 1020,2 hPa 0,0 l/m 2,2 km/h N 3,0 C 8,6 C 11,7 km/h
17.02.2021 20:00 8,4 C 67 % 1020,0 hPa 0,0 l/m 2,7 km/h N 2,6 C 8,4 C 13,7 km/h
17.02.2021 21:00 8,4 C 68 % 1020,4 hPa 0,0 l/m 2,9 km/h N 2,8 C 8,4 C 15,3 km/h
17.02.2021 22:00 8,0 C 69 % 1020,5 hPa 0,0 l/m 1,5 km/h N 2,7 C 8,0 C 11,3 km/h
17.02.2021 23:00 7,9 C 70 % 1020,6 hPa 0,0 l/m 1,9 km/h N 2,7 C 7,9 C 13,7 km/h
18.02.2021 00:00 7,8 C 70 % 1020,8 hPa 0,0 l/m 0,9 km/h N 2,7 C 7,8 C 10,4 km/h
18.02.2021 01:00 7,7 C 70 % 1020,7 hPa 0,0 l/m 1,4 km/h N 2,6 C 7,7 C 11,3 km/h
18.02.2021 02:00 7,5 C 69 % 1020,4 hPa 0,0 l/m 1,0 km/h N 2,2 C 7,5 C 10,1 km/h
18.02.2021 03:00 7,1 C 72 % 1020,4 hPa 0,0 l/m 1,3 km/h N 2,4 C 7,1 C 10,9 km/h
18.02.2021 04:00 6,5 C 71 % 1020,4 hPa 0,0 l/m 0,2 km/h N 1,6 C 6,5 C 2,4 km/h
18.02.2021 05:00 4,4 C 76 % 1020,9 hPa 0,0 l/m 0,0 km/h N 0,5 C 4,4 C 0,0 km/h
18.02.2021 06:00 3,5 C 79 % 1021,1 hPa 0,0 l/m 0,0 km/h N 0,3 C 3,5 C 0,0 km/h
18.02.2021 07:00 3,1 C 81 % 1021,4 hPa 0,0 l/m 0,0 km/h N 0,2 C 3,1 C 0,0 km/h
18.02.2021 08:00 3,9 C 82 % 1022,0 hPa 0,0 l/m 0,0 km/h N 1,1 C 3,9 C 0,0 km/h
18.02.2021 09:00 5,5 C 82 % 1022,0 hPa 0,0 l/m 0,0 km/h N 2,7 C 5,5 C 0,0 km/h
18.02.2021 10:00 7,4 C 81 % 1021,5 hPa 0,0 l/m 0,1 km/h N 4,3 C 7,4 C 2,0 km/h
18.02.2021 11:00 10,4 C 69 % 1021,3 hPa 0,0 l/m 0,1 km/h N 4,9 C 10,4 C 1,6 km/h
18.02.2021 12:00 11,0 C 64 % 1020,8 hPa 0,0 l/m 0,0 km/h N 4,4 C 11,0 C 1,2 km/h
18.02.2021 13:00 11,8 C 60 % 1020,1 hPa 0,0 l/m 0,4 km/h N 4,2 C 11,8 C 4,0 km/h
18.02.2021 14:00 12,6 C 57 % 1019,6 hPa 0,0 l/m 0,2 km/h N 4,4 C 12,6 C 6,4 km/h
18.02.2021 15:00 12,8 C 56 % 1019,4 hPa 0,0 l/m 0,0 km/h N 4,1 C 12,8 C 1,6 km/h
18.02.2021 16:00 11,0 C 60 % 1019,4 hPa 0,0 l/m 0,0 km/h N 3,4 C 11,0 C 0,8 km/h
18.02.2021 17:00 8,7 C 64 % 1019,7 hPa 0,0 l/m 0,0 km/h N 2,2 C 8,7 C 0,0 km/h
18.02.2021 18:00 6,1 C 69 % 1019,9 hPa 0,0 l/m 0,0 km/h N 0,8 C 6,1 C 0,0 km/h
18.02.2021 19:00 4,1 C 74 % 1020,1 hPa 0,0 l/m 0,0 km/h N -0,1 C 4,1 C 0,0 km/h
18.02.2021 20:00 2,6 C 78 % 1020,0 hPa 0,0 l/m 0,0 km/h N -0,8 C 2,6 C 0,0 km/h
18.02.2021 21:00 1,7 C 81 % 1019,9 hPa 0,0 l/m 0,0 km/h N -1,2 C 1,7 C 0,8 km/h
18.02.2021 22:00 2,2 C 82 % 1019,3 hPa 0,0 l/m 0,0 km/h N -0,6 C 2,2 C 0,0 km/h
18.02.2021 23:00 1,9 C 82 % 1018,9 hPa 0,0 l/m 0,0 km/h N -0,9 C 1,9 C 0,0 km/h
19.02.2021 00:00 1,3 C 82 % 1018,8 hPa 0,0 l/m 0,0 km/h N -1,4 C 1,3 C 0,0 km/h
19.02.2021 01:00 1,0 C 82 % 1018,4 hPa 0,0 l/m 0,0 km/h N -1,7 C 1,0 C 0,0 km/h
19.02.2021 02:00 1,0 C 82 % 1018,2 hPa 0,0 l/m 0,0 km/h N -1,7 C 1,0 C 0,0 km/h
19.02.2021 03:00 0,6 C 83 % 1018,1 hPa 0,0 l/m 0,0 km/h N -2,0 C 0,6 C 0,0 km/h
19.02.2021 04:00 0,0 C 83 % 1018,6 hPa 0,0 l/m 0,0 km/h N -2,5 C 0,0 C 0,0 km/h
19.02.2021 05:00 -0,2 C 83 % 1019,7 hPa 0,0 l/m 0,0 km/h N -2,8 C -0,2 C 0,4 km/h
19.02.2021 06:00 -0,0 C 82 % 1020,2 hPa 0,0 l/m 0,0 km/h N -2,7 C -0,0 C 0,0 km/h
19.02.2021 07:00 0,3 C 82 % 1020,7 hPa 0,0 l/m 0,0 km/h N -2,4 C 0,3 C 0,0 km/h
19.02.2021 08:00 1,1 C 82 % 1021,4 hPa 0,0 l/m 0,0 km/h N -1,6 C 1,1 C 0,0 km/h
19.02.2021 09:00 2,7 C 82 % 1021,7 hPa 0,0 l/m 0,0 km/h N -0,2 C 2,7 C 0,0 km/h
19.02.2021 10:00 3,4 C 82 % 1021,8 hPa 0,0 l/m 0,1 km/h N 0,6 C 3,4 C 2,0 km/h
19.02.2021 11:00 4,1 C 82 % 1022,0 hPa 0,0 l/m 0,0 km/h N 1,2 C 4,1 C 1,2 km/h
19.02.2021 12:00 4,8 C 82 % 1021,9 hPa 0,0 l/m 0,0 km/h N 2,0 C 4,8 C 0,0 km/h
19.02.2021 13:00 5,4 C 82 % 1021,7 hPa 0,0 l/m 0,2 km/h N 2,6 C 5,4 C 1,2 km/h
19.02.2021 14:00 5,7 C 82 % 1021,7 hPa 0,0 l/m 0,0 km/h N 2,9 C 5,7 C 0,0 km/h
19.02.2021 15:00 5,9 C 82 % 1021,9 hPa 0,0 l/m 0,0 km/h N 3,1 C 5,9 C 0,0 km/h
19.02.2021 16:00 5,9 C 82 % 1021,8 hPa 0,0 l/m 0,0 km/h N 3,1 C 5,9 C 0,0 km/h
19.02.2021 17:00 5,9 C 82 % 1021,7 hPa 0,0 l/m 0,0 km/h N 3,0 C 5,9 C 0,0 km/h
19.02.2021 18:00 5,7 C 82 % 1021,9 hPa 0,0 l/m 0,0 km/h N 2,9 C 5,7 C 0,0 km/h
19.02.2021 19:00 5,1 C 82 % 1022,1 hPa 0,0 l/m 0,0 km/h N 2,3 C 5,1 C 0,0 km/h
19.02.2021 20:00 4,7 C 82 % 1022,5 hPa 0,0 l/m 0,0 km/h N 1,8 C 4,7 C 0,0 km/h
19.02.2021 21:00 4,3 C 82 % 1022,5 hPa 0,0 l/m 0,0 km/h N 1,5 C 4,3 C 0,0 km/h
19.02.2021 22:00 4,0 C 82 % 1022,2 hPa 0,0 l/m 0,0 km/h N 1,2 C 4,0 C 0,0 km/h
19.02.2021 23:00 3,8 C 82 % 1022,1 hPa 0,0 l/m 0,0 km/h N 1,1 C 3,8 C 0,0 km/h
20.02.2021 00:00 3,5 C 83 % 1022,5 hPa 0,0 l/m 0,0 km/h N 0,8 C 3,5 C 0,0 km/h
20.02.2021 01:00 3,5 C 82 % 1022,9 hPa 0,0 l/m 0,0 km/h N 0,7 C 3,5 C 0,0 km/h
20.02.2021 02:00 3,5 C 82 % 1023,1 hPa 0,0 l/m 0,0 km/h N 0,7 C 3,5 C 0,0 km/h
20.02.2021 03:00 3,1 C 82 % 1023,3 hPa 0,0 l/m 0,0 km/h N 0,4 C 3,1 C 0,0 km/h
20.02.2021 04:00 3,1 C 82 % 1023,5 hPa 0,0 l/m 0,0 km/h N 0,3 C 3,1 C 0,0 km/h
20.02.2021 05:00 3,2 C 82 % 1023,9 hPa 0,0 l/m 0,0 km/h N 0,4 C 3,2 C 0,0 km/h
20.02.2021 06:00 3,2 C 82 % 1024,1 hPa 0,0 l/m 0,0 km/h N 0,4 C 3,2 C 0,0 km/h
20.02.2021 07:00 3,1 C 82 % 1024,7 hPa 0,0 l/m 0,0 km/h N 0,4 C 3,1 C 0,0 km/h
20.02.2021 08:00 3,1 C 82 % 1025,2 hPa 0,0 l/m 0,0 km/h N 0,4 C 3,1 C 0,0 km/h
20.02.2021 09:00 3,0 C 82 % 1025,6 hPa 0,0 l/m 0,0 km/h N 0,3 C 3,0 C 0,0 km/h
20.02.2021 10:00 3,6 C 82 % 1025,9 hPa 0,0 l/m 0,0 km/h N 0,8 C 3,6 C 0,0 km/h
20.02.2021 11:00 4,4 C 82 % 1026,1 hPa 0,0 l/m 0,0 km/h N 1,6 C 4,4 C 0,0 km/h
20.02.2021 12:00 5,2 C 82 % 1025,8 hPa 0,0 l/m 0,0 km/h N 2,4 C 5,2 C 0,0 km/h
20.02.2021 13:00 5,4 C 82 % 1025,6 hPa 0,0 l/m 0,0 km/h N 2,4 C 5,4 C 0,8 km/h
20.02.2021 14:00 4,9 C 82 % 1025,2 hPa 0,0 l/m 0,0 km/h N 2,1 C 4,9 C 1,2 km/h
20.02.2021 15:00 4,6 C 82 % 1025,1 hPa 0,0 l/m 0,0 km/h N 1,8 C 4,6 C 0,4 km/h
20.02.2021 16:00 4,3 C 82 % 1025,1 hPa 0,0 l/m 0,2 km/h N 1,5 C 4,3 C 2,0 km/h
20.02.2021 17:00 3,9 C 82 % 1025,3 hPa 0,0 l/m 0,5 km/h N 1,2 C 3,9 C 2,4 km/h
20.02.2021 18:00 3,8 C 82 % 1025,3 hPa 0,0 l/m 0,4 km/h N 1,1 C 3,8 C 2,8 km/h
20.02.2021 19:00 4,1 C 82 % 1025,2 hPa 0,0 l/m 0,0 km/h N 1,3 C 4,1 C 2,0 km/h
20.02.2021 20:00 4,7 C 82 % 1025,1 hPa 0,0 l/m 0,8 km/h N 1,8 C 4,7 C 5,2 km/h
20.02.2021 21:00 4,8 C 82 % 1025,1 hPa 0,0 l/m 0,8 km/h N 1,9 C 4,8 C 6,8 km/h
20.02.2021 22:00 4,6 C 82 % 1025,2 hPa 0,0 l/m 1,3 km/h N 1,8 C 4,6 C 7,2 km/h
20.02.2021 23:00 4,2 C 82 % 1024,9 hPa 0,0 l/m 1,1 km/h N 1,4 C 4,2 C 6,8 km/h
21.02.2021 00:00 3,8 C 82 % 1024,8 hPa 0,0 l/m 0,7 km/h N 1,1 C 3,8 C 9,2 km/h
21.02.2021 01:00 3,7 C 83 % 1024,5 hPa 0,0 l/m 0,7 km/h N 1,1 C 3,7 C 5,6 km/h
21.02.2021 02:00 3,6 C 83 % 1024,3 hPa 0,0 l/m 0,7 km/h N 1,0 C 3,6 C 6,0 km/h
21.02.2021 03:00 3,4 C 83 % 1024,1 hPa 0,0 l/m 0,4 km/h N 0,8 C 3,4 C 6,4 km/h
21.02.2021 04:00 3,2 C 83 % 1024,5 hPa 0,0 l/m 0,3 km/h N 0,6 C 3,2 C 5,2 km/h
21.02.2021 05:00 3,1 C 83 % 1024,4 hPa 0,0 l/m 0,0 km/h N 0,5 C 3,1 C 0,8 km/h
21.02.2021 06:00 3,3 C 83 % 1024,3 hPa 0,0 l/m 0,0 km/h N 0,7 C 3,3 C 0,4 km/h
21.02.2021 07:00 3,6 C 84 % 1024,6 hPa 0,0 l/m 0,0 km/h N 1,1 C 3,6 C 0,4 km/h
21.02.2021 08:00 3,9 C 84 % 1024,7 hPa 0,0 l/m 0,1 km/h N 1,5 C 3,9 C 4,4 km/h
21.02.2021 09:00 4,2 C 84 % 1024,8 hPa 0,0 l/m 0,2 km/h N 1,8 C 4,2 C 3,6 km/h
21.02.2021 10:00 4,3 C 84 % 1025,0 hPa 0,0 l/m 0,2 km/h N 1,9 C 4,3 C 4,0 km/h
21.02.2021 11:00 4,7 C 84 % 1025,3 hPa 0,0 l/m 0,3 km/h N 2,2 C 4,7 C 4,0 km/h
21.02.2021 12:00 4,9 C 84 % 1025,1 hPa 0,0 l/m 0,4 km/h N 2,4 C 4,9 C 6,0 km/h
21.02.2021 13:00 5,1 C 84 % 1024,8 hPa 0,0 l/m 0,1 km/h N 2,6 C 5,1 C 3,2 km/h
21.02.2021 14:00 5,5 C 84 % 1024,5 hPa 0,0 l/m 0,5 km/h N 3,0 C 5,5 C 5,6 km/h
21.02.2021 15:00 5,7 C 84 % 1024,2 hPa 0,0 l/m 0,0 km/h N 3,2 C 5,7 C 1,6 km/h
21.02.2021 16:00 5,5 C 84 % 1024,0 hPa 0,0 l/m 0,0 km/h N 3,0 C 5,5 C 0,4 km/h
21.02.2021 17:00 5,2 C 84 % 1023,8 hPa 0,0 l/m 0,0 km/h N 2,7 C 5,2 C 0,0 km/h
21.02.2021 18:00 5,2 C 84 % 1023,9 hPa 0,0 l/m 0,1 km/h N 2,7 C 5,2 C 2,8 km/h
21.02.2021 19:00 5,0 C 84 % 1023,7 hPa 0,0 l/m 0,0 km/h N 2,5 C 5,0 C 0,8 km/h
21.02.2021 20:00 4,9 C 84 % 1023,5 hPa 0,0 l/m 0,6 km/h N 2,4 C 4,9 C 2,0 km/h
21.02.2021 21:00 5,2 C 84 % 1023,4 hPa 0,0 l/m 2,3 km/h N 2,7 C 5,2 C 7,2 km/h
21.02.2021 22:00 5,0 C 83 % 1023,3 hPa 0,0 l/m 1,0 km/h N 2,3 C 5,0 C 5,2 km/h
21.02.2021 23:00 4,9 C 84 % 1023,0 hPa 0,0 l/m 2,0 km/h N 2,5 C 4,9 C 7,2 km/h
Min-Datum _ 15.02.21 15.02.21 17.02.21 - 15.02.21 - 15.02.21 15.02.21 15.02.21
_ Min-Zeit 07:45 15:00 09:15 - 01:00 - 07:30 07:45 02:30
Minimum _ -9,4 C 39 % 1016,5 hPa - 0,0 km/h - -12,4 C -9,4 C 0,0 km/h
Max-Datum _ 18.02.21 21.02.21 15.02.21 17.02.21 17.02.21 - 18.02.21 18.02.21 17.02.21
_ Max-Zeit 14:45 23:30 00:15 09:00 09:15 - 11:15 15:00 09:15
Maximum _ 13,1 C 88 % 1040,2 hPa 3,4 l/m 15,4 km/h
N
- 5,3 C 13,1 C 45,1 km/h
N
Durchschnitt _ 2,9 C 77 % 1024,2 hPa #7,8 l/m 0,6 km/h N -0,9 C 2,8 C 3,3 km/h